Time;durP1;ratioP1;P1;durP2;ratioP2;P2;SDS_P1;SDS_P2;PMS_P1;PMS_P2;Temp;Humidity;BMP_temperature;BMP_pressure;BME280_temperature;BME280_humidity;BME280_pressure;Samples;Min_cycle;Max_cycle;Signal;HPM_P1;HPM_P2
2023/03/13 00:01:12;;;;;;;20.73;3.42;;;8.70;99.90;;;;;;5061280;28;20039;-75
2023/03/13 00:03:39;;;;;;;14.30;3.78;;;8.80;99.90;;;;;;5054473;28;20386;-75
2023/03/13 00:06:05;;;;;;;12.00;3.72;;;8.80;99.90;;;;;;5059739;28;20469;-75
2023/03/13 00:08:31;;;;;;;13.73;3.28;;;8.70;99.90;;;;;;5060762;28;20040;-76
2023/03/13 00:11:01;;;;;;;11.88;3.15;;;8.70;99.90;;;;;;5058798;28;20036;-74
2023/03/13 00:13:27;;;;;;;15.00;4.25;;;8.70;99.90;;;;;;5058182;28;20992;-74
2023/03/13 00:16:04;;;;;;;10.38;3.45;;;8.60;99.90;;;;;;5060874;28;20049;-75
2023/03/13 00:18:30;;;;;;;15.40;3.10;;;8.70;99.90;;;;;;5056617;28;20036;-76
2023/03/13 00:21:01;;;;;;;11.13;3.55;;;8.80;99.90;;;;;;5062069;28;20036;-75
2023/03/13 00:23:27;;;;;;;15.05;4.07;;;8.80;99.90;;;;;;5063474;28;20044;-75
2023/03/13 00:25:58;;;;;;;14.43;2.88;;;8.90;99.90;;;;;;5062235;28;20049;-75
2023/03/13 00:28:26;;;;;;;;;;;9.00;99.90;;;;;;5049698;28;20054;-74
2023/03/13 00:31:09;;;;;;;16.02;3.88;;;9.10;99.90;;;;;;5061365;28;19909;-75
2023/03/13 00:33:43;;;;;;;14.70;5.30;;;9.00;99.90;;;;;;5060889;28;20062;-75
2023/03/13 00:36:12;;;;;;;14.57;3.92;;;9.10;99.90;;;;;;5063252;28;20416;-75
2023/03/13 00:38:40;;;;;;;14.48;3.67;;;9.10;99.90;;;;;;5059435;28;20045;-75
2023/03/13 00:41:11;;;;;;;15.63;5.88;;;9.10;99.90;;;;;;5062375;28;20044;-74
2023/03/13 00:43:38;;;;;;;14.32;3.08;;;9.10;99.90;;;;;;5059821;28;20045;-74
2023/03/13 00:46:04;;;;;;;11.73;3.67;;;9.20;99.90;;;;;;5062264;28;20044;-74
2023/03/13 00:48:32;;;;;;;10.50;2.95;;;9.20;99.90;;;;;;5057820;28;20037;-76
2023/03/13 00:51:00;;;;;;;11.23;3.17;;;9.30;99.90;;;;;;5052835;28;20374;-74
2023/03/13 00:53:27;;;;;;;13.90;2.83;;;9.30;99.90;;;;;;5063034;28;20039;-74
2023/03/13 00:56:03;;;;;;;11.90;4.22;;;9.40;99.90;;;;;;5057195;28;20080;-74
2023/03/13 00:58:32;;;;;;;14.68;3.65;;;9.40;99.90;;;;;;5062048;28;20032;-74
2023/03/13 01:01:24;;;;;;;13.23;4.07;;;9.40;99.90;;;;;;5050140;28;20041;-74
2023/03/13 01:03:56;;;;;;;16.10;3.45;;;9.50;99.90;;;;;;5058167;28;20489;-74
2023/03/13 01:06:26;;;;;;;9.98;2.47;;;9.50;99.90;;;;;;5075471;28;20053;-75
2023/03/13 01:08:53;;;;;;;8.27;2.78;;;9.50;99.90;;;;;;5061774;28;20497;-74
2023/03/13 01:11:21;;;;;;;9.98;3.97;;;9.50;99.90;;;;;;5082192;28;20045;-74
2023/03/13 01:13:48;;;;;;;15.85;2.90;;;9.60;99.90;;;;;;5053246;28;20040;-74
2023/03/13 01:16:19;;;;;;;12.65;3.03;;;9.50;99.90;;;;;;5059852;28;20064;-75
2023/03/13 01:18:49;;;;;;;7.60;2.83;;;9.60;99.90;;;;;;5061864;28;20493;-74
2023/03/13 01:21:18;;;;;;;9.30;3.00;;;9.70;99.90;;;;;;5060523;28;20055;-74
2023/03/13 01:23:48;;;;;;;10.35;3.47;;;9.70;99.90;;;;;;5054171;28;20068;-75
2023/03/13 01:26:14;;;;;;;9.73;2.42;;;9.70;99.90;;;;;;5054471;28;20373;-74
2023/03/13 01:28:41;;;;;;;12.73;2.40;;;9.70;99.90;;;;;;5059946;28;20052;-73
2023/03/13 01:31:23;;;;;;;9.40;3.08;;;9.70;99.90;;;;;;5073488;28;20036;-74
2023/03/13 01:33:52;;;;;;;10.75;3.15;;;9.70;99.90;;;;;;5058450;28;20041;-74
2023/03/13 01:36:19;;;;;;;8.88;2.38;;;9.70;99.90;;;;;;5049844;28;20056;-75
2023/03/13 01:38:50;;;;;;;13.07;3.15;;;9.70;99.90;;;;;;5056925;28;20048;-75
2023/03/13 01:41:16;;;;;;;10.40;3.10;;;9.70;99.90;;;;;;5064852;28;20048;-74
2023/03/13 01:43:44;;;;;;;8.55;2.45;;;9.60;99.90;;;;;;5064198;28;20044;-74
2023/03/13 01:46:12;;;;;;;9.95;2.63;;;9.60;99.90;;;;;;5059656;28;20053;-75
2023/03/13 01:49:06;;;;;;;11.27;3.08;;;9.70;99.90;;;;;;5033153;28;20489;-74
2023/03/13 01:51:44;;;;;;;9.55;2.85;;;9.70;99.90;;;;;;5048990;28;20041;-75
2023/03/13 01:54:17;;;;;;;11.13;4.22;;;9.70;99.90;;;;;;5060892;28;20461;-75
2023/03/13 01:56:58;;;;;;;8.27;2.10;;;9.70;99.90;;;;;;5074546;28;20134;-74
2023/03/13 01:59:32;;;;;;;9.52;1.98;;;9.80;99.90;;;;;;5039691;28;20045;-73
2023/03/13 02:02:01;;;;;;;10.40;2.72;;;10.00;99.90;;;;;;5054456;28;20054;-74
2023/03/13 02:04:34;;;;;;;15.05;2.33;;;10.30;99.90;;;;;;5048969;28;20041;-74
2023/03/13 02:07:05;;;;;;;7.63;1.63;;;10.30;99.90;;;;;;5061277;28;20029;-76
2023/03/13 02:09:33;;;;;;;9.63;3.00;;;10.40;99.90;;;;;;5059078;28;20032;-74
2023/03/13 02:12:07;;;;;;;10.38;2.47;;;10.50;99.90;;;;;;5030220;28;20467;-74
2023/03/13 02:14:36;;;;;;;10.57;2.47;;;10.60;99.90;;;;;;5061718;28;20056;-74
2023/03/13 02:17:05;;;;;;;12.30;1.77;;;10.60;99.90;;;;;;5073981;28;20408;-75
2023/03/13 02:19:44;;;;;;;7.28;1.85;;;10.50;99.90;;;;;;5064608;28;20036;-74
2023/03/13 02:22:28;;;;;;;14.88;2.58;;;10.50;99.90;;;;;;5055589;28;20039;-74
2023/03/13 02:25:22;;;;;;;8.85;2.45;;;10.50;99.90;;;;;;5061334;28;20048;-74
2023/03/13 02:27:59;;;;;;;9.95;3.38;;;10.50;99.90;;;;;;5060765;28;20040;-75
2023/03/13 02:30:26;;;;;;;13.73;3.13;;;10.50;99.90;;;;;;5065464;28;20041;-74
2023/03/13 02:32:56;;;;;;;5.55;1.98;;;10.50;99.90;;;;;;5062187;28;20029;-74
2023/03/13 02:35:23;;;;;;;7.63;2.00;;;10.50;99.90;;;;;;5054692;28;20049;-74
2023/03/13 02:37:56;;;;;;;9.98;2.13;;;10.40;99.90;;;;;;5073684;28;20131;-74
2023/03/13 02:40:29;;;;;;;8.95;1.88;;;10.40;99.90;;;;;;5052285;28;20045;-75
2023/03/13 02:43:00;;;;;;;8.93;2.70;;;10.40;99.90;;;;;;5075659;28;20053;-74
2023/03/13 02:45:26;;;;;;;9.82;3.33;;;10.40;99.90;;;;;;5052233;28;20045;-74
2023/03/13 02:47:52;;;;;;;7.95;2.38;;;10.40;99.90;;;;;;5062658;28;20457;-74
2023/03/13 02:50:19;;;;;;;9.90;2.13;;;10.40;99.90;;;;;;5063540;28;20045;-74
2023/03/13 02:52:49;;;;;;;10.75;1.60;;;10.50;99.90;;;;;;5058835;28;20091;-74
2023/03/13 02:55:26;;;;;;;13.02;2.33;;;10.50;99.90;;;;;;5061375;28;20401;-74
2023/03/13 02:57:52;;;;;;;10.95;1.70;;;10.50;99.90;;;;;;5055106;28;20041;-74
2023/03/13 03:00:19;;;;;;;9.43;1.65;;;10.50;99.90;;;;;;5067332;28;20409;-73
2023/03/13 03:02:46;;;;;;;9.70;2.08;;;10.50;99.90;;;;;;5079185;28;20043;-74
2023/03/13 03:05:13;;;;;;;8.05;1.58;;;10.60;99.90;;;;;;5061545;28;20048;-75
2023/03/13 03:07:39;;;;;;;5.38;1.98;;;10.50;99.90;;;;;;5060544;28;20063;-76
2023/03/13 03:10:07;;;;;;;7.57;1.52;;;10.50;99.90;;;;;;5080408;28;20055;-74
2023/03/13 03:12:34;;;;;;;6.95;1.85;;;10.50;99.90;;;;;;5078819;28;20045;-75
2023/03/13 03:15:03;;;;;;;13.27;2.20;;;10.50;99.90;;;;;;5062577;28;20048;-74
2023/03/13 03:17:30;;;;;;;6.97;1.45;;;10.50;99.90;;;;;;5072891;28;20043;-75
2023/03/13 03:19:56;;;;;;;4.47;1.73;;;10.50;99.90;;;;;;5078521;28;20171;-74
2023/03/13 03:22:23;;;;;;;6.72;1.60;;;10.50;99.90;;;;;;5056150;28;20044;-74
2023/03/13 03:24:49;;;;;;;7.40;1.98;;;10.50;99.90;;;;;;5062721;28;20036;-74
2023/03/13 03:27:18;;;;;;;4.00;1.30;;;10.50;99.90;;;;;;5061194;28;20033;-74
2023/03/13 03:29:50;;;;;;;8.43;2.15;;;10.50;99.90;;;;;;5060489;28;20162;-74
2023/03/13 03:32:16;;;;;;;6.07;1.67;;;10.60;99.90;;;;;;5059534;28;20049;-73
2023/03/13 03:34:42;;;;;;;5.65;1.40;;;10.50;99.90;;;;;;5052414;28;20041;-75
2023/03/13 03:37:08;;;;;;;8.00;1.98;;;10.50;99.90;;;;;;5054105;28;20040;-74
2023/03/13 03:39:35;;;;;;;8.20;1.48;;;10.50;99.90;;;;;;5062287;28;20029;-75
2023/03/13 03:42:05;;;;;;;8.95;1.48;;;10.50;99.90;;;;;;5061792;28;20047;-74
2023/03/13 03:44:32;;;;;;;4.68;1.23;;;10.50;99.90;;;;;;5063118;28;20067;-75
2023/03/13 03:46:59;;;;;;;7.82;1.83;;;10.50;1.00;;;;;;5040456;28;20517;-75
2023/03/13 03:49:29;;;;;;;9.00;1.92;;;10.50;1.00;;;;;;5050337;28;20041;-75
2023/03/13 03:51:55;;;;;;;7.45;1.23;;;10.40;1.00;;;;;;5061867;28;20470;-74
2023/03/13 03:54:28;;;;;;;7.28;1.63;;;10.30;1.00;;;;;;5061937;28;20391;-74
2023/03/13 03:56:54;;;;;;;11.57;1.65;;;10.30;1.00;;;;;;5060055;28;20486;-75
2023/03/13 03:59:22;;;;;;;3.83;1.17;;;10.30;1.00;;;;;;5061253;28;20045;-74
2023/03/13 04:01:56;;;;;;;3.08;1.17;;;10.20;1.00;;;;;;5060630;28;20037;-75
2023/03/13 04:04:24;;;;;;;7.03;1.75;;;10.30;1.00;;;;;;5039145;28;20486;-75
2023/03/13 04:06:57;;;;;;;10.02;1.65;;;10.30;1.00;;;;;;5038047;28;20049;-74
2023/03/13 04:09:24;;;;;;;8.90;1.70;;;10.30;1.00;;;;;;5060144;28;20041;-74
2023/03/13 04:11:51;;;;;;;4.90;2.08;;;10.20;1.00;;;;;;5054138;28;20405;-75
2023/03/13 04:14:17;;;;;;;8.05;1.42;;;10.30;1.00;;;;;;5061141;28;20052;-74
2023/03/13 04:16:44;;;;;;;2.85;1.00;;;10.30;1.00;;;;;;5060527;28;20390;-76
2023/03/13 04:19:11;;;;;;;3.55;1.10;;;10.30;1.00;;;;;;5056251;28;20051;-74
2023/03/13 04:21:38;;;;;;;4.43;1.52;;;10.30;1.00;;;;;;5056353;28;20048;-74
2023/03/13 04:24:11;;;;;;;6.60;2.22;;;10.20;1.00;;;;;;5061750;28;20493;-73
2023/03/13 04:26:40;;;;;;;9.60;2.17;;;10.20;1.00;;;;;;5060932;28;20053;-74
2023/03/13 04:29:06;;;;;;;4.10;1.00;;;10.20;1.00;;;;;;5026754;28;20041;-75
2023/03/13 04:31:46;;;;;;;5.95;2.05;;;10.20;1.00;;;;;;5054409;28;20056;-76
2023/03/13 04:34:34;;;;;;;6.18;0.98;;;10.20;1.00;;;;;;5057539;28;20040;-74
2023/03/13 04:37:27;;;;;;;3.05;0.98;;;10.20;1.00;;;;;;5044198;28;20052;-74
2023/03/13 04:40:16;;;;;;;2.83;0.88;;;10.20;1.00;;;;;;5055175;28;20044;-74
2023/03/13 04:43:05;;;;;;;3.95;1.30;;;10.20;1.00;;;;;;5069597;28;20142;-74
2023/03/13 04:46:09;;;;;;;;;;;10.20;1.00;;;;;;5045349;28;20056;-74
2023/03/13 04:48:45;;;;;;;2.70;1.05;;;10.20;1.00;;;;;;5074843;28;20356;-75
2023/03/13 04:51:24;;;;;;;3.47;0.93;;;10.20;1.00;;;;;;5058569;28;20040;-74
2023/03/13 04:54:14;;;;;;;5.65;1.05;;;10.20;1.00;;;;;;5055303;28;20059;-74
2023/03/13 04:57:00;;;;;;;4.35;1.33;;;10.20;1.00;;;;;;5059125;28;20493;-72
2023/03/13 04:59:39;;;;;;;3.60;0.98;;;10.20;1.00;;;;;;5054207;28;20051;-72
2023/03/13 05:02:44;;;;;;;4.22;1.30;;;10.20;1.00;;;;;;4996531;28;20157;-76
2023/03/13 05:05:35;;;;;;;5.35;1.58;;;10.20;1.00;;;;;;4996445;28;20057;-76
2023/03/13 05:08:24;;;;;;;7.07;3.08;;;10.30;1.00;;;;;;5039676;28;20036;-73
2023/03/13 05:11:06;;;;;;;8.55;1.13;;;10.20;1.00;;;;;;5074488;28;20041;-74
2023/03/13 05:13:50;;;;;;;4.18;1.00;;;10.30;1.00;;;;;;5057316;28;20036;-74
2023/03/13 05:16:37;;;;;;;3.03;1.00;;;10.30;1.00;;;;;;5058880;28;20049;-74
2023/03/13 05:19:26;;;;;;;4.27;0.83;;;10.40;1.00;;;;;;5056110;28;20043;-73
2023/03/13 05:22:21;;;;;;;4.80;1.20;;;10.40;1.00;;;;;;5048657;28;20392;-74
2023/03/13 05:25:06;;;;;;;3.15;1.23;;;10.40;1.00;;;;;;5061945;28;20032;-73
2023/03/13 05:27:54;;;;;;;4.85;1.48;;;10.40;1.00;;;;;;5072857;28;20041;-73
2023/03/13 05:30:32;;;;;;;4.20;1.02;;;10.50;1.00;;;;;;5063083;28;20095;-74
2023/03/13 05:33:18;;;;;;;13.57;2.20;;;10.50;1.00;;;;;;5062262;28;20526;-73
2023/03/13 05:36:01;;;;;;;3.58;0.93;;;10.50;1.00;;;;;;5075494;28;20056;-73
2023/03/13 05:38:41;;;;;;;3.97;0.80;;;10.50;1.00;;;;;;5061405;28;20037;-73
2023/03/13 05:41:38;;;;;;;1.67;0.65;;;10.50;1.00;;;;;;5061628;28;20033;-74
2023/03/13 05:44:18;;;;;;;7.78;1.33;;;10.60;1.00;;;;;;5053032;28;20382;-73
2023/03/13 05:47:19;;;;;;;;;;;10.60;1.00;;;;;;5059863;28;20504;-73
2023/03/13 05:49:45;;;;;;;3.58;0.98;;;10.60;1.00;;;;;;5063457;28;19912;-75
2023/03/13 05:52:34;;;;;;;3.63;1.00;;;10.70;1.00;;;;;;5062569;28;20033;-73
2023/03/13 05:55:11;;;;;;;4.78;1.05;;;10.70;1.00;;;;;;5061384;28;20052;-73
2023/03/13 05:58:00;;;;;;;4.25;0.88;;;10.70;1.00;;;;;;5062596;28;20385;-73
2023/03/13 06:00:44;;;;;;;2.15;0.77;;;10.80;1.00;;;;;;5061896;28;20049;-73
2023/03/13 06:03:29;;;;;;;5.18;1.77;;;10.70;1.00;;;;;;5060109;28;20032;-74
2023/03/13 06:05:58;;;;;;;4.78;1.05;;;10.80;1.00;;;;;;5063048;28;20055;-74
2023/03/13 06:08:35;;;;;;;3.85;0.90;;;10.80;1.00;;;;;;5064057;28;20071;-73
2023/03/13 06:11:02;;;;;;;3.95;0.93;;;10.80;1.00;;;;;;5053468;28;20041;-75
2023/03/13 06:13:28;;;;;;;3.03;1.25;;;10.90;1.00;;;;;;5057697;28;20077;-73
2023/03/13 06:15:59;;;;;;;3.50;0.88;;;10.90;1.00;;;;;;5039164;28;20065;-73
2023/03/13 06:18:44;;;;;;;3.45;0.80;;;10.90;1.00;;;;;;5063938;28;20029;-73
2023/03/13 06:21:10;;;;;;;4.78;0.95;;;10.90;1.00;;;;;;5065427;28;20033;-74
2023/03/13 06:23:36;;;;;;;0.88;0.57;;;10.90;1.00;;;;;;5064132;28;20025;-73
2023/03/13 06:26:02;;;;;;;3.40;0.85;;;10.90;1.00;;;;;;5062249;28;20033;-73
2023/03/13 06:28:29;;;;;;;3.00;0.75;;;11.00;1.00;;;;;;5065890;28;20405;-73
2023/03/13 06:31:04;;;;;;;4.15;0.70;;;11.10;1.00;;;;;;5068398;28;20037;-73
2023/03/13 06:33:30;;;;;;;3.08;0.63;;;11.10;1.00;;;;;;5068481;28;20044;-73
2023/03/13 06:35:57;;;;;;;3.53;1.30;;;11.10;1.00;;;;;;5062999;28;20405;-73
2023/03/13 06:38:24;;;;;;;4.00;1.23;;;11.10;1.00;;;;;;5064115;28;20481;-73
2023/03/13 06:40:50;;;;;;;3.20;0.60;;;11.10;1.00;;;;;;5064377;28;20054;-73
2023/03/13 06:43:16;;;;;;;4.85;0.85;;;11.20;1.00;;;;;;5057487;28;20045;-73
2023/03/13 06:45:45;;;;;;;1.23;0.50;;;11.20;1.00;;;;;;5066438;28;20041;-73
2023/03/13 06:48:11;;;;;;;1.05;0.50;;;11.40;1.00;;;;;;5065448;28;20035;-73
2023/03/13 06:50:39;;;;;;;1.55;0.40;;;11.60;1.00;;;;;;5060919;28;20051;-73
2023/03/13 06:53:05;;;;;;;3.15;0.70;;;11.70;1.00;;;;;;5064709;28;20458;-72
2023/03/13 06:55:31;;;;;;;3.70;0.70;;;11.90;1.00;;;;;;5060376;28;20462;-73
2023/03/13 06:57:57;;;;;;;1.52;0.55;;;12.00;1.00;;;;;;5060804;28;20056;-73
2023/03/13 07:00:24;;;;;;;3.85;0.90;;;12.10;1.00;;;;;;5065371;28;20035;-73
2023/03/13 07:02:50;;;;;;;4.25;1.13;;;12.20;1.00;;;;;;5061596;28;20032;-74
2023/03/13 07:05:17;;;;;;;3.40;1.00;;;12.40;1.00;;;;;;5064286;28;20477;-73
2023/03/13 07:07:43;;;;;;;5.13;0.98;;;12.40;1.00;;;;;;5062867;28;20028;-73
2023/03/13 07:10:10;;;;;;;4.85;1.10;;;12.40;1.00;;;;;;5066854;28;20025;-75
2023/03/13 07:12:36;;;;;;;5.72;1.20;;;12.40;1.00;;;;;;5065658;28;20040;-75
2023/03/13 07:15:04;;;;;;;2.33;1.00;;;12.50;1.00;;;;;;5055772;28;20048;-75
2023/03/13 07:17:30;;;;;;;2.58;0.60;;;12.50;1.00;;;;;;5063554;28;20037;-75
2023/03/13 07:19:56;;;;;;;1.77;0.50;;;12.60;1.00;;;;;;5064644;28;20049;-75
2023/03/13 07:22:22;;;;;;;1.90;0.88;;;12.60;1.00;;;;;;5076315;28;20451;-74
2023/03/13 07:24:48;;;;;;;2.20;0.60;;;12.60;1.00;;;;;;5054294;28;20029;-75
2023/03/13 07:27:16;;;;;;;1.75;0.88;;;12.70;1.00;;;;;;5059494;28;20032;-73
2023/03/13 07:29:42;;;;;;;1.77;0.80;;;12.80;1.00;;;;;;5056580;28;20025;-75
2023/03/13 07:32:08;;;;;;;1.45;0.70;;;12.70;1.00;;;;;;5058548;28;20039;-74
2023/03/13 07:34:34;;;;;;;1.83;0.70;;;12.80;1.00;;;;;;5058427;28;20029;-75
2023/03/13 07:37:00;;;;;;;4.10;0.70;;;12.70;1.00;;;;;;5055955;28;20040;-75
2023/03/13 07:39:26;;;;;;;0.60;0.40;;;12.70;1.00;;;;;;5056292;28;20046;-74
2023/03/13 07:41:53;;;;;;;1.77;0.60;;;12.80;1.00;;;;;;5059598;28;20359;-75
2023/03/13 07:44:19;;;;;;;3.42;2.05;;;12.80;1.00;;;;;;5058531;28;20405;-74
2023/03/13 07:46:47;;;;;;;2.65;0.63;;;12.80;1.00;;;;;;5053198;28;20458;-76
2023/03/13 07:49:13;;;;;;;1.38;0.57;;;12.90;1.00;;;;;;5055913;28;20028;-75
2023/03/13 07:51:41;;;;;;;2.70;0.55;;;13.00;1.00;;;;;;5058622;28;20084;-74
2023/03/13 07:54:07;;;;;;;0.82;0.38;;;13.00;1.00;;;;;;5057685;28;20357;-74
2023/03/13 07:56:34;;;;;;;1.40;0.50;;;13.00;1.00;;;;;;5060829;28;20037;-74
2023/03/13 07:59:00;;;;;;;2.95;0.77;;;13.00;1.00;;;;;;5061848;28;20033;-76
2023/03/13 08:01:29;;;;;;;1.67;0.68;;;13.00;1.00;;;;;;5063847;28;20028;-75
2023/03/13 08:03:57;;;;;;;2.08;0.60;;;13.00;1.00;;;;;;5059806;28;20371;-76
2023/03/13 08:06:25;;;;;;;2.67;0.77;;;13.10;1.00;;;;;;5063863;28;20025;-76
2023/03/13 08:08:55;;;;;;;4.63;0.80;;;13.00;1.00;;;;;;5057139;28;20033;-77
2023/03/13 08:11:24;;;;;;;2.00;0.70;;;13.10;1.00;;;;;;5051978;28;20055;-75
2023/03/13 08:13:51;;;;;;;2.92;0.60;;;13.10;1.00;;;;;;5063526;28;20040;-77
2023/03/13 08:16:22;;;;;;;2.92;0.98;;;13.10;1.00;;;;;;5063638;28;20036;-76
2023/03/13 08:18:51;;;;;;;2.60;1.00;;;13.10;1.00;;;;;;5066112;28;20036;-75
2023/03/13 08:21:20;;;;;;;2.90;1.10;;;13.20;1.00;;;;;;5063021;28;20037;-75
2023/03/13 08:23:47;;;;;;;3.83;1.13;;;13.30;1.00;;;;;;5060645;28;20393;-75
2023/03/13 08:26:16;;;;;;;2.25;0.98;;;13.30;1.00;;;;;;5058449;28;20033;-75
2023/03/13 08:28:50;;;;;;;2.30;1.23;;;13.40;1.00;;;;;;5063469;28;20036;-76
2023/03/13 08:31:19;;;;;;;2.20;1.02;;;13.50;1.00;;;;;;5059063;28;20040;-76
2023/03/13 08:33:46;;;;;;;1.55;0.90;;;13.50;1.00;;;;;;5062687;28;20029;-75
2023/03/13 08:36:22;;;;;;;4.68;0.75;;;13.50;1.00;;;;;;5062999;28;20044;-75
2023/03/13 08:38:49;;;;;;;2.17;0.90;;;13.50;1.00;;;;;;5057523;28;20039;-75
2023/03/13 08:41:18;;;;;;;2.53;0.80;;;13.50;1.00;;;;;;5057401;28;20036;-75
2023/03/13 08:43:47;;;;;;;1.80;0.75;;;13.60;1.00;;;;;;5060602;28;20045;-75
2023/03/13 08:46:14;;;;;;;3.83;0.82;;;13.60;99.90;;;;;;5062234;28;20049;-75
2023/03/13 08:48:40;;;;;;;2.58;1.30;;;13.60;99.90;;;;;;5060321;28;20159;-75
2023/03/13 08:51:12;;;;;;;3.05;0.77;;;13.70;99.90;;;;;;5061052;28;20378;-75
2023/03/13 08:53:40;;;;;;;3.20;1.02;;;13.80;99.90;;;;;;5060543;28;20041;-74
2023/03/13 08:56:13;;;;;;;1.90;0.70;;;13.80;99.90;;;;;;5060738;28;20052;-75
2023/03/13 08:58:39;;;;;;;7.72;0.82;;;13.80;99.90;;;;;;5059883;28;20505;-75
2023/03/13 09:01:11;;;;;;;1.40;0.77;;;13.80;99.90;;;;;;5051895;28;20067;-77
2023/03/13 09:03:38;;;;;;;2.53;0.93;;;13.80;99.90;;;;;;5046696;28;20045;-76
2023/03/13 09:06:05;;;;;;;3.03;0.98;;;13.80;99.90;;;;;;5054657;28;20473;-74
2023/03/13 09:08:32;;;;;;;3.55;1.10;;;13.80;99.90;;;;;;5058582;28;20036;-74
2023/03/13 09:11:00;;;;;;;3.50;0.70;;;13.90;99.90;;;;;;5057256;28;20032;-75
2023/03/13 09:13:28;;;;;;;5.70;1.30;;;14.00;99.90;;;;;;5057886;28;20029;-75
2023/03/13 09:16:02;;;;;;;3.30;1.33;;;14.10;99.90;;;;;;5054796;28;20045;-76
2023/03/13 09:18:29;;;;;;;5.25;1.73;;;14.10;99.90;;;;;;5056575;28;20036;-75
2023/03/13 09:20:55;;;;;;;4.50;1.10;;;14.30;99.90;;;;;;5057096;28;20056;-75
2023/03/13 09:23:22;;;;;;;8.60;2.53;;;14.30;99.90;;;;;;5053338;28;20021;-75
2023/03/13 09:25:52;;;;;;;3.00;1.30;;;14.10;99.90;;;;;;5070197;28;20049;-75
2023/03/13 09:28:18;;;;;;;2.05;1.08;;;14.10;99.90;;;;;;5055685;28;20040;-75
2023/03/13 09:30:45;;;;;;;2.25;1.13;;;14.10;99.90;;;;;;5056907;28;20036;-74
2023/03/13 09:33:11;;;;;;;2.20;1.02;;;14.10;99.90;;;;;;5055725;28;20377;-74
2023/03/13 09:35:38;;;;;;;2.40;0.88;;;14.00;99.90;;;;;;5050139;28;20037;-75
2023/03/13 09:38:05;;;;;;;1.90;0.82;;;13.90;99.90;;;;;;5055044;28;20051;-75
2023/03/13 09:40:47;;;;;;;2.33;0.90;;;13.90;99.90;;;;;;5054054;28;20036;-74
2023/03/13 09:43:42;;;;;;;1.88;0.80;;;13.90;99.90;;;;;;5053573;28;20037;-76
2023/03/13 09:46:25;;;;;;;5.78;1.98;;;13.90;99.90;;;;;;5032494;28;20056;-75
2023/03/13 09:48:58;;;;;;;3.78;0.80;;;14.00;99.90;;;;;;5054542;28;20029;-74
2023/03/13 09:51:37;;;;;;;3.92;0.70;;;14.10;99.90;;;;;;5057440;28;20031;-75
2023/03/13 09:54:27;;;;;;;4.05;1.40;;;14.20;99.90;;;;;;5051575;28;20037;-74
2023/03/13 09:57:04;;;;;;;2.50;0.52;;;14.10;99.90;;;;;;5059710;28;20462;-74
2023/03/13 09:59:42;;;;;;;2.92;1.13;;;14.10;99.90;;;;;;5061005;28;20044;-75
2023/03/13 10:02:19;;;;;;;2.63;0.85;;;14.20;99.90;;;;;;5064531;28;20024;-74
2023/03/13 10:04:52;;;;;;;1.88;1.08;;;14.20;99.90;;;;;;5062728;28;20033;-76
2023/03/13 10:07:20;;;;;;;1.88;0.75;;;14.30;99.90;;;;;;5061407;28;20044;-74
2023/03/13 10:09:46;;;;;;;1.63;0.95;;;14.70;99.90;;;;;;5065414;28;20032;-74
2023/03/13 10:12:21;;;;;;;1.85;0.80;;;15.20;99.90;;;;;;5080455;28;20036;-75
2023/03/13 10:15:11;;;;;;;2.05;0.90;;;15.80;99.90;;;;;;5064242;28;20040;-74
2023/03/13 10:17:39;;;;;;;3.55;0.70;;;16.20;99.90;;;;;;5062517;28;20040;-75
2023/03/13 10:20:28;;;;;;;1.08;0.50;;;16.60;99.90;;;;;;5059868;28;20052;-73
2023/03/13 10:23:47;;;;;;;3.33;0.95;;;16.90;99.90;;;;;;5065352;28;20036;-76
2023/03/13 10:26:31;;;;;;;5.15;1.25;;;16.50;99.90;;;;;;5025171;28;20041;-76
2023/03/13 10:29:10;;;;;;;4.07;1.10;;;16.10;99.90;;;;;;5061196;28;20040;-76
2023/03/13 10:31:37;;;;;;;3.15;0.95;;;15.90;99.90;;;;;;5053413;28;20044;-74
2023/03/13 10:34:11;;;;;;;1.67;0.80;;;15.70;99.90;;;;;;5061629;28;20052;-74
2023/03/13 10:36:49;;;;;;;3.42;0.80;;;15.90;99.90;;;;;;5065180;28;20037;-75
2023/03/13 10:39:18;;;;;;;3.50;0.85;;;16.10;99.90;;;;;;5065545;28;20374;-74
2023/03/13 10:41:45;;;;;;;4.30;0.90;;;16.30;99.90;;;;;;5065086;28;20044;-75
2023/03/13 10:44:16;;;;;;;1.70;0.70;;;16.40;99.90;;;;;;5055182;28;20049;-75
2023/03/13 10:46:46;;;;;;;1.33;0.68;;;16.60;99.90;;;;;;5064281;28;20041;-75
2023/03/13 10:49:23;;;;;;;5.43;1.38;;;16.60;99.90;;;;;;5069004;28;20381;-73
2023/03/13 10:51:55;;;;;;;2.80;1.10;;;16.60;99.90;;;;;;5064886;28;20386;-74
2023/03/13 10:54:25;;;;;;;3.38;1.02;;;16.70;99.90;;;;;;5057274;28;20029;-74
2023/03/13 10:57:05;;;;;;;2.85;1.35;;;16.60;99.90;;;;;;5061600;28;20484;-75
2023/03/13 10:59:37;;;;;;;2.53;1.13;;;16.70;99.90;;;;;;5060267;28;20047;-75
2023/03/13 11:02:19;;;;;;;2.65;1.05;;;16.70;99.90;;;;;;5062131;28;20040;-75
2023/03/13 11:04:48;;;;;;;3.95;1.20;;;16.80;99.90;;;;;;5061355;28;20465;-75
2023/03/13 11:07:24;;;;;;;2.10;0.98;;;16.80;99.90;;;;;;5059332;28;20389;-75
2023/03/13 11:10:19;;;;;;;2.30;0.70;;;16.90;99.90;;;;;;5060589;28;20036;-74
2023/03/13 11:12:48;;;;;;;4.03;1.45;;;17.00;99.90;;;;;;5062139;28;20047;-74
2023/03/13 11:15:22;;;;;;;2.08;1.08;;;16.80;99.90;;;;;;5062293;28;20033;-76
2023/03/13 11:18:12;;;;;;;4.43;1.20;;;16.80;99.90;;;;;;5065308;28;20040;-75
2023/03/13 11:20:42;;;;;;;2.40;0.68;;;17.40;99.90;;;;;;5043957;28;20045;-74
2023/03/13 11:23:27;;;;;;;3.35;0.90;;;17.80;99.90;;;;;;5060194;28;20033;-73
2023/03/13 11:26:19;;;;;;;1.30;0.60;;;18.00;99.90;;;;;;5058396;28;20029;-73
2023/03/13 11:29:12;;;;;;;1.65;0.63;;;17.90;99.90;;;;;;5057703;28;20036;-74
2023/03/13 11:31:45;;;;;;;1.98;0.77;;;18.00;99.90;;;;;;5060190;28;20393;-74
2023/03/13 11:34:29;;;;;;;3.33;0.82;;;18.10;99.90;;;;;;5060898;28;20031;-76
2023/03/13 11:36:55;;;;;;;3.33;1.15;;;17.90;99.90;;;;;;5061392;28;20037;-74
2023/03/13 11:39:37;;;;;;;4.30;0.88;;;17.80;99.90;;;;;;5060370;28;20033;-75
2023/03/13 11:42:41;;;;;;;5.45;1.15;;;17.60;99.90;;;;;;5055010;28;20389;-76
2023/03/13 11:45:30;;;;;;;4.97;0.80;;;17.40;99.90;;;;;;4972421;28;20619;-76
2023/03/13 11:48:21;;;;;;;1.77;1.00;;;17.40;99.90;;;;;;4980006;28;20034;-76
2023/03/13 11:50:55;;;;;;;4.05;1.25;;;17.80;99.90;;;;;;5047266;28;20048;-76
2023/03/13 11:53:29;;;;;;;2.75;1.00;;;18.10;99.90;;;;;;5064078;28;20560;-76
2023/03/13 11:56:06;;;;;;;1.65;0.65;;;18.10;99.90;;;;;;5061664;28;20041;-75
2023/03/13 11:59:01;;;;;;;1.95;0.75;;;18.10;99.90;;;;;;5065253;28;20385;-75
2023/03/13 12:01:34;;;;;;;4.63;0.80;;;18.40;99.90;;;;;;5057907;28;20039;-75
2023/03/13 12:04:24;;;;;;;5.85;0.90;;;18.60;99.90;;;;;;5058792;28;20032;-76
2023/03/13 12:07:15;;;;;;;4.78;0.82;;;18.90;99.90;;;;;;5061034;28;20117;-76
2023/03/13 12:09:55;;;;;;;2.45;0.95;;;19.20;99.90;;;;;;5049525;28;20115;-75
2023/03/13 12:12:50;;;;;;;2.30;0.90;;;19.10;99.90;;;;;;5056040;28;20055;-75
2023/03/13 12:15:27;;;;;;;3.03;0.70;;;18.60;99.90;;;;;;5059812;28;20382;-74
2023/03/13 12:18:05;;;;;;;3.20;0.70;;;18.30;99.90;;;;;;5058051;28;20060;-74
2023/03/13 12:20:52;;;;;;;4.88;1.58;;;18.60;99.90;;;;;;5059114;28;20029;-74
2023/03/13 12:23:27;;;;;;;0.98;0.65;;;18.80;99.90;;;;;;5058261;28;20053;-74
2023/03/13 12:26:09;;;;;;;2.00;1.10;;;19.00;99.90;;;;;;5065496;28;20381;-74
2023/03/13 12:29:07;;;;;;;2.65;0.85;;;19.20;99.90;;;;;;5060401;28;20028;-73
2023/03/13 12:31:42;;;;;;;1.30;0.88;;;18.80;99.90;;;;;;5061639;28;20374;-75
2023/03/13 12:34:21;;;;;;;2.13;0.80;;;18.90;99.90;;;;;;5063091;28;20029;-76
2023/03/13 12:37:00;;;;;;;2.83;1.23;;;18.90;99.90;;;;;;5064837;28;20485;-74
2023/03/13 12:39:53;;;;;;;1.38;0.70;;;19.10;99.90;;;;;;5061841;28;20051;-75
2023/03/13 12:42:50;;;;;;;5.18;2.42;;;19.10;99.90;;;;;;5060350;28;20078;-75
2023/03/13 12:45:18;;;;;;;1.15;0.70;;;19.10;99.90;;;;;;5063838;28;20044;-75
2023/03/13 12:47:57;;;;;;;2.80;1.20;;;19.10;99.90;;;;;;5062841;28;20043;-74
2023/03/13 12:50:38;;;;;;;2.30;1.40;;;18.90;99.90;;;;;;5074531;28;20041;-76
2023/03/13 12:53:33;;;;;;;2.70;0.98;;;18.80;99.90;;;;;;5062294;28;20029;-76
2023/03/13 12:56:20;;;;;;;2.25;1.20;;;18.80;99.90;;;;;;5054540;28;20470;-74
2023/03/13 12:59:02;;;;;;;3.83;1.35;;;18.70;99.90;;;;;;5058416;28;20045;-74
2023/03/13 13:01:31;;;;;;;3.72;1.85;;;18.90;99.90;;;;;;5060326;28;20033;-74
2023/03/13 13:04:03;;;;;;;3.10;1.20;;;19.20;99.90;;;;;;5064267;28;20367;-74
2023/03/13 13:06:54;;;;;;;2.42;1.20;;;19.20;99.90;;;;;;5060944;28;20043;-75
2023/03/13 13:09:38;;;;;;;2.22;1.10;;;19.40;99.90;;;;;;5059429;28;20081;-75
2023/03/13 13:12:24;;;;;;;1.95;0.85;;;19.40;99.90;;;;;;5064368;28;20029;-78
2023/03/13 13:14:50;;;;;;;2.25;1.27;;;19.40;99.90;;;;;;5059683;28;20041;-76
2023/03/13 13:17:39;;;;;;;1.50;1.00;;;19.30;99.90;;;;;;5063611;28;20397;-75
2023/03/13 13:20:25;;;;;;;4.25;0.80;;;19.50;99.90;;;;;;5057173;28;20044;-75
2023/03/13 13:22:53;;;;;;;1.83;0.77;;;19.70;99.90;;;;;;5055048;28;20044;-76
2023/03/13 13:25:26;;;;;;;2.22;1.08;;;19.60;99.90;;;;;;5059400;28;20048;-75